North Hills, Pennsylvania
Current Conditions -  °F | °C
As of 11:35 AM on Saturday 25 Oct 2014 (Local Time) from KLOM Reporting Station
Clear Clear  
Wind Chill: 63°   Ceiling: Unl
Heat Index: 63°   Visibility: 10mi
Dew Point: 43°   Wind: 6mph
Humidity: 48%   Direction: 270°W
Pressure: 29.86"   Gusts: NA
Location:  40.1012°N, 75.1722°W
Report Text: KLOM 251535Z AUTO 27005KT 10SM CLR 17/06 A2986 RMK AO1
Loading
Personal Weather Stations






























Interactive Weather Map
Tropical Storm Tracking
New forecast layout! Learn more

10-Day Weather Forecast

Advertisements
Track Severe Weather on mobile